sensor_id;sensor_type;location;lat;lon;timestamp;pressure;altitude;pressure_sealevel;temperature
79089;BMP280;68489;50.286;9.452;2024-03-08T00:02:03;97360.84;;;0.56
79089;BMP280;68489;50.286;9.452;2024-03-08T00:04:28;97361.59;;;0.57
79089;BMP280;68489;50.286;9.452;2024-03-08T00:06:54;97363.47;;;0.60
79089;BMP280;68489;50.286;9.452;2024-03-08T00:09:19;97356.00;;;0.58
79089;BMP280;68489;50.286;9.452;2024-03-08T00:11:44;97357.50;;;0.59
79089;BMP280;68489;50.286;9.452;2024-03-08T00:14:10;97357.84;;;0.58
79089;BMP280;68489;50.286;9.452;2024-03-08T00:16:35;97356.75;;;0.59
79089;BMP280;68489;50.286;9.452;2024-03-08T00:19:01;97354.88;;;0.59
79089;BMP280;68489;50.286;9.452;2024-03-08T00:21:26;97352.28;;;0.63
79089;BMP280;68489;50.286;9.452;2024-03-08T00:23:52;97351.22;;;0.67
79089;BMP280;68489;50.286;9.452;2024-03-08T00:26:20;97342.22;;;0.65
79089;BMP280;68489;50.286;9.452;2024-03-08T00:28:47;97344.09;;;0.68
79089;BMP280;68489;50.286;9.452;2024-03-08T00:31:13;97335.84;;;0.66
79089;BMP280;68489;50.286;9.452;2024-03-08T00:33:39;97350.41;;;0.63
79089;BMP280;68489;50.286;9.452;2024-03-08T00:36:04;97349.28;;;0.61
79089;BMP280;68489;50.286;9.452;2024-03-08T00:38:30;97332.47;;;0.58
79089;BMP280;68489;50.286;9.452;2024-03-08T00:40:56;97332.78;;;0.53
79089;BMP280;68489;50.286;9.452;2024-03-08T00:43:22;97337.28;;;0.56
79089;BMP280;68489;50.286;9.452;2024-03-08T00:45:47;97336.88;;;0.51
79089;BMP280;68489;50.286;9.452;2024-03-08T00:48:12;97324.13;;;0.49
79089;BMP280;68489;50.286;9.452;2024-03-08T00:50:38;97326.34;;;0.47
79089;BMP280;68489;50.286;9.452;2024-03-08T00:53:03;97320.75;;;0.45
79089;BMP280;68489;50.286;9.452;2024-03-08T00:55:29;97322.97;;;0.43
79089;BMP280;68489;50.286;9.452;2024-03-08T00:57:55;97324.41;;;0.37
79089;BMP280;68489;50.286;9.452;2024-03-08T01:00:20;97321.75;;;0.26
79089;BMP280;68489;50.286;9.452;2024-03-08T01:02:46;97322.78;;;0.18
79089;BMP280;68489;50.286;9.452;2024-03-08T01:05:11;97312.22;;;0.07
79089;BMP280;68489;50.286;9.452;2024-03-08T01:07:37;97308.84;;;0.07
79089;BMP280;68489;50.286;9.452;2024-03-08T01:10:03;97307.75;;;0.08
79089;BMP280;68489;50.286;9.452;2024-03-08T01:12:28;97308.88;;;0.10
79089;BMP280;68489;50.286;9.452;2024-03-08T01:14:55;97305.63;;;0.20
79089;BMP280;68489;50.286;9.452;2024-03-08T01:17:20;97305.66;;;0.28
79089;BMP280;68489;50.286;9.452;2024-03-08T01:19:45;97303.06;;;0.28
79089;BMP280;68489;50.286;9.452;2024-03-08T01:22:11;97291.50;;;0.29
79089;BMP280;68489;50.286;9.452;2024-03-08T01:24:36;97290.34;;;0.26
79089;BMP280;68489;50.286;9.452;2024-03-08T01:27:02;97289.22;;;0.24
79089;BMP280;68489;50.286;9.452;2024-03-08T01:29:28;97288.09;;;0.25
79089;BMP280;68489;50.286;9.452;2024-03-08T01:31:55;97279.88;;;0.22
79089;BMP280;68489;50.286;9.452;2024-03-08T01:34:21;97286.56;;;0.20
79089;BMP280;68489;50.286;9.452;2024-03-08T01:36:46;97272.72;;;0.16
79089;BMP280;68489;50.286;9.452;2024-03-08T01:39:12;97276.03;;;0.09
79089;BMP280;68489;50.286;9.452;2024-03-08T01:41:37;97266.28;;;0.06
79089;BMP280;68489;50.286;9.452;2024-03-08T01:44:03;97268.09;;;0.02
79089;BMP280;68489;50.286;9.452;2024-03-08T01:46:29;97256.16;;;0.01
79089;BMP280;68489;50.286;9.452;2024-03-08T01:48:55;97256.56;;;0.03
79089;BMP280;68489;50.286;9.452;2024-03-08T01:51:21;97258.38;;;0.03
79089;BMP280;68489;50.286;9.452;2024-03-08T01:53:47;97257.28;;;0.00
79089;BMP280;68489;50.286;9.452;2024-03-08T01:56:13;97256.91;;;0.02
79089;BMP280;68489;50.286;9.452;2024-03-08T01:58:41;97243.44;;;-0.01
79089;BMP280;68489;50.286;9.452;2024-03-08T02:01:08;97237.78;;;-0.06
79089;BMP280;68489;50.286;9.452;2024-03-08T02:03:34;97230.75;;;-0.02
79089;BMP280;68489;50.286;9.452;2024-03-08T02:06:00;97230.75;;;-0.02
79089;BMP280;68489;50.286;9.452;2024-03-08T02:08:25;97231.88;;;0.01
79089;BMP280;68489;50.286;9.452;2024-03-08T02:10:51;97225.94;;;0.04
79089;BMP280;68489;50.286;9.452;2024-03-08T02:13:16;97220.72;;;0.07
79089;BMP280;68489;50.286;9.452;2024-03-08T02:15:58;97223.00;;;0.09
79089;BMP280;68489;50.286;9.452;2024-03-08T02:18:24;97225.66;;;0.16
79089;BMP280;68489;50.286;9.452;2024-03-08T02:20:53;97218.59;;;0.20
79089;BMP280;68489;50.286;9.452;2024-03-08T02:23:20;97223.44;;;0.21
79089;BMP280;68489;50.286;9.452;2024-03-08T02:25:46;97224.97;;;0.22
79089;BMP280;68489;50.286;9.452;2024-03-08T02:28:12;97215.59;;;0.21
79089;BMP280;68489;50.286;9.452;2024-03-08T02:30:38;97208.16;;;0.24
79089;BMP280;68489;50.286;9.452;2024-03-08T02:33:07;97208.56;;;0.26
79089;BMP280;68489;50.286;9.452;2024-03-08T02:35:35;97205.22;;;0.29
79089;BMP280;68489;50.286;9.452;2024-03-08T02:38:01;97196.63;;;0.28
79089;BMP280;68489;50.286;9.452;2024-03-08T02:40:26;97197.75;;;0.31
79089;BMP280;68489;50.286;9.452;2024-03-08T02:42:52;97195.47;;;0.33
79089;BMP280;68489;50.286;9.452;2024-03-08T02:45:17;97195.88;;;0.31
79089;BMP280;68489;50.286;9.452;2024-03-08T02:47:43;97193.63;;;0.30
79089;BMP280;68489;50.286;9.452;2024-03-08T02:50:08;97196.25;;;0.30
79089;BMP280;68489;50.286;9.452;2024-03-08T02:52:34;97191.75;;;0.27
79089;BMP280;68489;50.286;9.452;2024-03-08T02:55:01;97190.25;;;0.26
79089;BMP280;68489;50.286;9.452;2024-03-08T02:57:26;97194.06;;;0.39
79089;BMP280;68489;50.286;9.452;2024-03-08T02:59:53;97193.66;;;0.40
79089;BMP280;68489;50.286;9.452;2024-03-08T03:02:19;97186.97;;;0.43
79089;BMP280;68489;50.286;9.452;2024-03-08T03:04:44;97185.91;;;0.51
79089;BMP280;68489;50.286;9.452;2024-03-08T03:07:09;97182.50;;;0.47
79089;BMP280;68489;50.286;9.452;2024-03-08T03:09:36;97183.28;;;0.55
79089;BMP280;68489;50.286;9.452;2024-03-08T03:12:01;97179.13;;;0.47
79089;BMP280;68489;50.286;9.452;2024-03-08T03:14:27;97179.50;;;0.45
79089;BMP280;68489;50.286;9.452;2024-03-08T03:16:53;97173.13;;;0.42
79089;BMP280;68489;50.286;9.452;2024-03-08T03:19:19;97170.13;;;0.37
79089;BMP280;68489;50.286;9.452;2024-03-08T03:21:45;97170.84;;;0.34
79089;BMP280;68489;50.286;9.452;2024-03-08T03:24:11;97169.00;;;0.31
79089;BMP280;68489;50.286;9.452;2024-03-08T03:26:38;97167.09;;;0.35
79089;BMP280;68489;50.286;9.452;2024-03-08T03:29:05;97167.50;;;0.37
79089;BMP280;68489;50.286;9.452;2024-03-08T03:31:31;97162.22;;;0.33
79089;BMP280;68489;50.286;9.452;2024-03-08T03:33:56;97165.59;;;0.27
79089;BMP280;68489;50.286;9.452;2024-03-08T03:36:27;97155.09;;;0.19
79089;BMP280;68489;50.286;9.452;2024-03-08T03:38:53;97157.28;;;0.14
79089;BMP280;68489;50.286;9.452;2024-03-08T03:41:29;97145.66;;;0.08
79089;BMP280;68489;50.286;9.452;2024-03-08T03:43:55;97143.78;;;0.08
79089;BMP280;68489;50.286;9.452;2024-03-08T03:46:20;97148.66;;;0.06
79089;BMP280;68489;50.286;9.452;2024-03-08T03:48:45;97143.38;;;0.03
79089;BMP280;68489;50.286;9.452;2024-03-08T03:51:11;97141.94;;;0.09
79089;BMP280;68489;50.286;9.452;2024-03-08T03:53:37;97140.84;;;0.13
79089;BMP280;68489;50.286;9.452;2024-03-08T03:56:03;97143.44;;;0.06
79089;BMP280;68489;50.286;9.452;2024-03-08T03:58:32;97137.47;;;0.09
79089;BMP280;68489;50.286;9.452;2024-03-08T04:00:57;97135.22;;;0.08
79089;BMP280;68489;50.286;9.452;2024-03-08T04:03:23;97131.13;;;0.10
79089;BMP280;68489;50.286;9.452;2024-03-08T04:05:48;97132.59;;;0.08
79089;BMP280;68489;50.286;9.452;2024-03-08T04:08:14;97135.94;;;0.05
79089;BMP280;68489;50.286;9.452;2024-03-08T04:10:40;97128.47;;;0.03
79089;BMP280;68489;50.286;9.452;2024-03-08T04:13:07;97135.16;;;0.01
79089;BMP280;68489;50.286;9.452;2024-03-08T04:15:34;97121.38;;;0.04
79089;BMP280;68489;50.286;9.452;2024-03-08T04:18:00;97123.19;;;-0.01
79089;BMP280;68489;50.286;9.452;2024-03-08T04:20:25;97128.41;;;-0.04
79089;BMP280;68489;50.286;9.452;2024-03-08T04:22:51;97126.91;;;-0.05
79089;BMP280;68489;50.286;9.452;2024-03-08T04:25:16;97121.69;;;-0.05
79089;BMP280;68489;50.286;9.452;2024-03-08T04:27:42;97123.16;;;-0.08
79089;BMP280;68489;50.286;9.452;2024-03-08T04:30:08;97114.19;;;-0.10
79089;BMP280;68489;50.286;9.452;2024-03-08T04:32:33;97107.81;;;-0.13
79089;BMP280;68489;50.286;9.452;2024-03-08T04:34:59;97114.19;;;-0.10
79089;BMP280;68489;50.286;9.452;2024-03-08T04:37:26;97102.56;;;-0.16
79089;BMP280;68489;50.286;9.452;2024-03-08T04:39:51;97105.19;;;-0.16
79089;BMP280;68489;50.286;9.452;2024-03-08T04:42:17;97108.16;;;-0.18
79089;BMP280;68489;50.286;9.452;2024-03-08T04:44:43;97100.66;;;-0.19
79089;BMP280;68489;50.286;9.452;2024-03-08T04:47:08;97100.28;;;-0.21
79089;BMP280;68489;50.286;9.452;2024-03-08T04:49:33;97097.31;;;-0.20
79089;BMP280;68489;50.286;9.452;2024-03-08T04:52:05;97094.34;;;-0.18
79089;BMP280;68489;50.286;9.452;2024-03-08T04:54:31;97099.91;;;-0.20
79089;BMP280;68489;50.286;9.452;2024-03-08T04:56:57;97090.59;;;-0.21
79089;BMP280;68489;50.286;9.452;2024-03-08T04:59:22;97095.44;;;-0.19
79089;BMP280;68489;50.286;9.452;2024-03-08T05:01:47;97092.81;;;-0.19
79089;BMP280;68489;50.286;9.452;2024-03-08T05:04:13;97094.34;;;-0.18
79089;BMP280;68489;50.286;9.452;2024-03-08T05:06:40;97089.50;;;-0.16
79089;BMP280;68489;50.286;9.452;2024-03-08T05:09:05;97088.78;;;-0.13
79089;BMP280;68489;50.286;9.452;2024-03-08T05:11:41;97084.72;;;-0.07
79089;BMP280;68489;50.286;9.452;2024-03-08T05:14:07;97083.22;;;-0.08
79089;BMP280;68489;50.286;9.452;2024-03-08T05:16:32;97091.44;;;-0.06
79089;BMP280;68489;50.286;9.452;2024-03-08T05:18:57;97089.56;;;-0.06
79089;BMP280;68489;50.286;9.452;2024-03-08T05:21:23;97083.56;;;-0.13
79089;BMP280;68489;50.286;9.452;2024-03-08T05:23:48;97082.81;;;-0.14
79089;BMP280;68489;50.286;9.452;2024-03-08T05:26:15;97088.38;;;-0.19
79089;BMP280;68489;50.286;9.452;2024-03-08T05:28:40;97080.50;;;-0.23
79089;BMP280;68489;50.286;9.452;2024-03-08T05:31:06;97086.84;;;-0.24
79089;BMP280;68489;50.286;9.452;2024-03-08T05:33:32;97079.72;;;-0.27
79089;BMP280;68489;50.286;9.452;2024-03-08T05:35:59;97082.34;;;-0.27
79089;BMP280;68489;50.286;9.452;2024-03-08T05:38:25;97078.94;;;-0.31
79089;BMP280;68489;50.286;9.452;2024-03-08T05:40:51;97075.59;;;-0.31
79089;BMP280;68489;50.286;9.452;2024-03-08T05:43:16;97072.31;;;-0.21
79089;BMP280;68489;50.286;9.452;2024-03-08T05:45:45;97076.78;;;-0.21
79089;BMP280;68489;50.286;9.452;2024-03-08T05:48:10;97077.53;;;-0.21
79089;BMP280;68489;50.286;9.452;2024-03-08T05:50:37;97072.69;;;-0.19
79089;BMP280;68489;50.286;9.452;2024-03-08T05:53:03;97075.66;;;-0.20
79089;BMP280;68489;50.286;9.452;2024-03-08T05:55:32;97070.81;;;-0.22
79089;BMP280;68489;50.286;9.452;2024-03-08T05:58:01;97076.41;;;-0.20
79089;BMP280;68489;50.286;9.452;2024-03-08T06:00:26;97073.84;;;-0.16
79089;BMP280;68489;50.286;9.452;2024-03-08T06:02:52;97078.69;;;-0.15
79089;BMP280;68489;50.286;9.452;2024-03-08T06:05:17;97080.63;;;-0.08
79089;BMP280;68489;50.286;9.452;2024-03-08T06:07:43;97077.63;;;-0.07
79089;BMP280;68489;50.286;9.452;2024-03-08T06:10:09;97081.03;;;-0.03
79089;BMP280;68489;50.286;9.452;2024-03-08T06:12:38;97073.91;;;-0.02
79089;BMP280;68489;50.286;9.452;2024-03-08T06:15:09;97073.53;;;-0.01
79089;BMP280;68489;50.286;9.452;2024-03-08T06:17:36;97070.19;;;0.03
79089;BMP280;68489;50.286;9.452;2024-03-08T06:20:01;97072.88;;;0.10
79089;BMP280;68489;50.286;9.452;2024-03-08T06:22:26;97072.91;;;0.17
79089;BMP280;68489;50.286;9.452;2024-03-08T06:24:52;97061.75;;;0.27
79089;BMP280;68489;50.286;9.452;2024-03-08T06:27:19;97065.47;;;0.33
79089;BMP280;68489;50.286;9.452;2024-03-08T06:29:44;97067.00;;;0.38
79089;BMP280;68489;50.286;9.452;2024-03-08T06:32:10;97070.41;;;0.42
79089;BMP280;68489;50.286;9.452;2024-03-08T06:34:35;97067.78;;;0.42
79089;BMP280;68489;50.286;9.452;2024-03-08T06:37:01;97064.78;;;0.47
79089;BMP280;68489;50.286;9.452;2024-03-08T06:39:27;97068.56;;;0.53
79089;BMP280;68489;50.286;9.452;2024-03-08T06:41:53;97063.34;;;0.57
79089;BMP280;68489;50.286;9.452;2024-03-08T06:44:19;97061.88;;;0.66
79089;BMP280;68489;50.286;9.452;2024-03-08T06:46:47;97056.28;;;0.68
79089;BMP280;68489;50.286;9.452;2024-03-08T06:49:13;97060.78;;;0.71
79089;BMP280;68489;50.286;9.452;2024-03-08T06:51:38;97063.78;;;0.73
79089;BMP280;68489;50.286;9.452;2024-03-08T06:54:06;97057.81;;;0.76
79089;BMP280;68489;50.286;9.452;2024-03-08T06:56:34;97052.97;;;0.82
79089;BMP280;68489;50.286;9.452;2024-03-08T06:58:59;97055.97;;;0.87
79089;BMP280;68489;50.286;9.452;2024-03-08T07:01:25;97064.94;;;0.94
79089;BMP280;68489;50.286;9.452;2024-03-08T07:03:50;97053.75;;;1.04
79089;BMP280;68489;50.286;9.452;2024-03-08T07:06:18;97055.63;;;1.07
79089;BMP280;68489;50.286;9.452;2024-03-08T07:08:44;97058.63;;;1.12
79089;BMP280;68489;50.286;9.452;2024-03-08T07:11:11;97057.91;;;1.23
79089;BMP280;68489;50.286;9.452;2024-03-08T07:13:37;97053.41;;;1.27
79089;BMP280;68489;50.286;9.452;2024-03-08T07:16:04;97047.00;;;1.35
79089;BMP280;68489;50.286;9.452;2024-03-08T07:18:30;97056.00;;;1.45
79089;BMP280;68489;50.286;9.452;2024-03-08T07:20:56;97056.00;;;1.52
79089;BMP280;68489;50.286;9.452;2024-03-08T07:23:22;97054.50;;;1.54
79089;BMP280;68489;50.286;9.452;2024-03-08T07:26:05;97044.41;;;1.64
79089;BMP280;68489;50.286;9.452;2024-03-08T07:28:31;97050.00;;;1.73
79089;BMP280;68489;50.286;9.452;2024-03-08T07:30:58;97047.00;;;1.82
79089;BMP280;68489;50.286;9.452;2024-03-08T07:33:46;97050.00;;;1.87
79089;BMP280;68489;50.286;9.452;2024-03-08T07:36:12;97049.19;;;1.94
79089;BMP280;68489;50.286;9.452;2024-03-08T07:38:37;97056.69;;;2.02
79089;BMP280;68489;50.286;9.452;2024-03-08T07:41:03;97046.16;;;2.13
79089;BMP280;68489;50.286;9.452;2024-03-08T07:43:28;97053.25;;;2.20
79089;BMP280;68489;50.286;9.452;2024-03-08T07:45:53;97043.88;;;2.26
79089;BMP280;68489;50.286;9.452;2024-03-08T07:48:20;97041.19;;;2.37
79089;BMP280;68489;50.286;9.452;2024-03-08T07:50:46;97038.13;;;2.49
79089;BMP280;68489;50.286;9.452;2024-03-08T07:53:11;97034.34;;;2.57
79089;BMP280;68489;50.286;9.452;2024-03-08T07:55:37;97027.13;;;2.68
79089;BMP280;68489;50.286;9.452;2024-03-08T07:58:02;97022.63;;;2.72
79089;BMP280;68489;50.286;9.452;2024-03-08T08:00:28;97031.16;;;2.87
79089;BMP280;68489;50.286;9.452;2024-03-08T08:02:55;97022.91;;;2.92
79089;BMP280;68489;50.286;9.452;2024-03-08T08:05:21;97019.41;;;3.06
79089;BMP280;68489;50.286;9.452;2024-03-08T08:07:46;97015.56;;;3.18
79089;BMP280;68489;50.286;9.452;2024-03-08T08:10:13;97021.44;;;3.29
79089;BMP280;68489;50.286;9.452;2024-03-08T08:12:49;97014.22;;;3.40
79089;BMP280;68489;50.286;9.452;2024-03-08T08:15:14;97007.41;;;3.50
79089;BMP280;68489;50.286;9.452;2024-03-08T08:17:44;97013.66;;;3.63
79089;BMP280;68489;50.286;9.452;2024-03-08T08:20:10;97013.94;;;3.73
79089;BMP280;68489;50.286;9.452;2024-03-08T08:22:38;97009.34;;;3.80
79089;BMP280;68489;50.286;9.452;2024-03-08T08:25:05;97003.19;;;3.94
79089;BMP280;68489;50.286;9.452;2024-03-08T08:27:30;97000.41;;;4.05
79089;BMP280;68489;50.286;9.452;2024-03-08T08:29:55;96997.66;;;4.16
79089;BMP280;68489;50.286;9.452;2024-03-08T08:32:21;96996.72;;;4.29
79089;BMP280;68489;50.286;9.452;2024-03-08T08:34:47;96994.69;;;4.41
79089;BMP280;68489;50.286;9.452;2024-03-08T08:37:13;96988.50;;;4.51
79089;BMP280;68489;50.286;9.452;2024-03-08T08:39:38;96990.34;;;4.57
79089;BMP280;68489;50.286;9.452;2024-03-08T08:42:04;96981.50;;;4.68
79089;BMP280;68489;50.286;9.452;2024-03-08T08:44:29;96991.41;;;4.84
79089;BMP280;68489;50.286;9.452;2024-03-08T08:46:56;96979.63;;;4.92
79089;BMP280;68489;50.286;9.452;2024-03-08T08:49:23;96977.00;;;4.92
79089;BMP280;68489;50.286;9.452;2024-03-08T08:51:52;96980.59;;;5.01
79089;BMP280;68489;50.286;9.452;2024-03-08T08:54:17;96983.63;;;5.00
79089;BMP280;68489;50.286;9.452;2024-03-08T08:56:43;96972.63;;;5.05
79089;BMP280;68489;50.286;9.452;2024-03-08T08:59:09;96977.72;;;5.16
79089;BMP280;68489;50.286;9.452;2024-03-08T09:01:34;96972.31;;;5.23
79089;BMP280;68489;50.286;9.452;2024-03-08T09:04:00;96967.09;;;5.43
79089;BMP280;68489;50.286;9.452;2024-03-08T09:06:25;96965.84;;;5.47
79089;BMP280;68489;50.286;9.452;2024-03-08T09:08:51;96971.75;;;5.55
79089;BMP280;68489;50.286;9.452;2024-03-08T09:11:16;96967.91;;;5.60
79089;BMP280;68489;50.286;9.452;2024-03-08T09:13:44;96964.91;;;5.58
79089;BMP280;68489;50.286;9.452;2024-03-08T09:16:11;96967.28;;;5.72
79089;BMP280;68489;50.286;9.452;2024-03-08T09:18:36;96961.59;;;5.73
79089;BMP280;68489;50.286;9.452;2024-03-08T09:21:01;96965.97;;;5.80
79089;BMP280;68489;50.286;9.452;2024-03-08T09:23:28;96960.81;;;5.93
79089;BMP280;68489;50.286;9.452;2024-03-08T09:25:56;96961.91;;;5.95
79089;BMP280;68489;50.286;9.452;2024-03-08T09:28:23;96959.78;;;6.07
79089;BMP280;68489;50.286;9.452;2024-03-08T09:30:48;96958.47;;;6.15
79089;BMP280;68489;50.286;9.452;2024-03-08T09:33:14;96957.91;;;6.23
79089;BMP280;68489;50.286;9.452;2024-03-08T09:35:44;96946.44;;;6.30
79089;BMP280;68489;50.286;9.452;2024-03-08T09:38:12;96949.84;;;6.47
79089;BMP280;68489;50.286;9.452;2024-03-08T09:40:38;96943.88;;;6.43
79089;BMP280;68489;50.286;9.452;2024-03-08T09:43:04;96942.56;;;6.51
79089;BMP280;68489;50.286;9.452;2024-03-08T09:45:31;96953.28;;;6.60
79089;BMP280;68489;50.286;9.452;2024-03-08T09:48:01;96950.75;;;6.73
79089;BMP280;68489;50.286;9.452;2024-03-08T09:50:26;96950.25;;;6.62
79089;BMP280;68489;50.286;9.452;2024-03-08T09:52:53;96943.03;;;6.79
79089;BMP280;68489;50.286;9.452;2024-03-08T09:55:22;96945.72;;;6.91
79089;BMP280;68489;50.286;9.452;2024-03-08T09:57:48;96948.53;;;7.01
79089;BMP280;68489;50.286;9.452;2024-03-08T10:00:34;96931.91;;;7.00
79089;BMP280;68489;50.286;9.452;2024-03-08T10:03:02;96934.94;;;7.15
79089;BMP280;68489;50.286;9.452;2024-03-08T10:05:30;96932.31;;;7.28
79089;BMP280;68489;50.286;9.452;2024-03-08T10:07:55;96923.63;;;7.27
79089;BMP280;68489;50.286;9.452;2024-03-08T10:10:20;96922.41;;;7.32
79089;BMP280;68489;50.286;9.452;2024-03-08T10:12:48;96927.47;;;7.39
79089;BMP280;68489;50.286;9.452;2024-03-08T10:15:15;96913.34;;;7.16
79089;BMP280;68489;50.286;9.452;2024-03-08T10:17:42;96907.22;;;7.07
79089;BMP280;68489;50.286;9.452;2024-03-08T10:20:18;96893.78;;;7.14
79089;BMP280;68489;50.286;9.452;2024-03-08T10:22:44;96896.25;;;7.21
79089;BMP280;68489;50.286;9.452;2024-03-08T10:25:13;96903.00;;;7.09
79089;BMP280;68489;50.286;9.452;2024-03-08T10:27:39;96892.97;;;6.88
79089;BMP280;68489;50.286;9.452;2024-03-08T10:30:15;96887.47;;;6.82
79089;BMP280;68489;50.286;9.452;2024-03-08T10:32:44;96885.81;;;7.01
79089;BMP280;68489;50.286;9.452;2024-03-08T10:35:10;96891.88;;;7.14
79089;BMP280;68489;50.286;9.452;2024-03-08T10:37:45;96884.09;;;7.24
79089;BMP280;68489;50.286;9.452;2024-03-08T10:40:17;96878.19;;;7.32
79089;BMP280;68489;50.286;9.452;2024-03-08T10:42:53;96881.16;;;7.34
79089;BMP280;68489;50.286;9.452;2024-03-08T10:50:48;96859.22;;;7.21
79089;BMP280;68489;50.286;9.452;2024-03-08T10:53:18;96853.25;;;7.04
79089;BMP280;68489;50.286;9.452;2024-03-08T10:55:46;96854.44;;;7.16
79089;BMP280;68489;50.286;9.452;2024-03-08T10:58:12;96852.66;;;7.26
79089;BMP280;68489;50.286;9.452;2024-03-08T11:00:37;96844.53;;;7.33
79089;BMP280;68489;50.286;9.452;2024-03-08T11:03:04;96854.03;;;7.30
79089;BMP280;68489;50.286;9.452;2024-03-08T11:05:37;96834.81;;;7.42
79089;BMP280;68489;50.286;9.452;2024-03-08T11:08:14;96851.84;;;7.54
79089;BMP280;68489;50.286;9.452;2024-03-08T11:10:51;96846.91;;;7.56
79089;BMP280;68489;50.286;9.452;2024-03-08T11:13:33;96835.31;;;7.50
79089;BMP280;68489;50.286;9.452;2024-03-08T11:15:59;96838.63;;;7.54
79089;BMP280;68489;50.286;9.452;2024-03-08T11:18:26;96826.25;;;7.51
79089;BMP280;68489;50.286;9.452;2024-03-08T11:20:54;96824.41;;;7.61
79089;BMP280;68489;50.286;9.452;2024-03-08T11:23:22;96830.03;;;7.63
79089;BMP280;68489;50.286;9.452;2024-03-08T11:25:48;96826.78;;;7.72
79089;BMP280;68489;50.286;9.452;2024-03-08T11:28:19;96819.88;;;7.87
79089;BMP280;68489;50.286;9.452;2024-03-08T11:33:26;96812.75;;;7.97
79089;BMP280;68489;50.286;9.452;2024-03-08T11:35:53;96812.84;;;8.06
79089;BMP280;68489;50.286;9.452;2024-03-08T11:38:28;96818.25;;;8.02
79089;BMP280;68489;50.286;9.452;2024-03-08T11:40:57;96808.38;;;8.15
79089;BMP280;68489;50.286;9.452;2024-03-08T11:43:22;96813.84;;;8.21
79089;BMP280;68489;50.286;9.452;2024-03-08T11:45:47;96809.56;;;8.14
79089;BMP280;68489;50.286;9.452;2024-03-08T11:48:13;96807.63;;;8.15
79089;BMP280;68489;50.286;9.452;2024-03-08T11:50:39;96807.09;;;8.20
79089;BMP280;68489;50.286;9.452;2024-03-08T11:53:05;96799.44;;;8.22
79089;BMP280;68489;50.286;9.452;2024-03-08T11:55:33;96793.31;;;8.25
79089;BMP280;68489;50.286;9.452;2024-03-08T11:58:04;96792.63;;;8.34
79089;BMP280;68489;50.286;9.452;2024-03-08T12:00:30;96779.28;;;8.37
79089;BMP280;68489;50.286;9.452;2024-03-08T12:03:07;96776.25;;;8.26
79089;BMP280;68489;50.286;9.452;2024-03-08T12:05:35;96784.78;;;8.30
79089;BMP280;68489;50.286;9.452;2024-03-08T12:08:01;96778.75;;;8.30
79089;BMP280;68489;50.286;9.452;2024-03-08T12:10:27;96776.03;;;8.21
79089;BMP280;68489;50.286;9.452;2024-03-08T12:12:54;96781.22;;;8.24
79089;BMP280;68489;50.286;9.452;2024-03-08T12:15:23;96768.47;;;8.32
79089;BMP280;68489;50.286;9.452;2024-03-08T12:17:50;96774.38;;;8.36
79089;BMP280;68489;50.286;9.452;2024-03-08T12:20:17;96772.31;;;8.31
79089;BMP280;68489;50.286;9.452;2024-03-08T12:22:44;96768.78;;;8.34
79089;BMP280;68489;50.286;9.452;2024-03-08T12:25:11;96763.41;;;8.25
79089;BMP280;68489;50.286;9.452;2024-03-08T12:27:38;96761.72;;;8.31
79089;BMP280;68489;50.286;9.452;2024-03-08T12:30:24;96771.00;;;8.35
79089;BMP280;68489;50.286;9.452;2024-03-08T12:32:56;96759.25;;;8.36
79089;BMP280;68489;50.286;9.452;2024-03-08T12:35:23;96755.00;;;8.39
79089;BMP280;68489;50.286;9.452;2024-03-08T12:37:53;96744.28;;;8.43
79089;BMP280;68489;50.286;9.452;2024-03-08T12:40:26;96741.31;;;8.40
79089;BMP280;68489;50.286;9.452;2024-03-08T12:42:52;96735.78;;;8.48
79089;BMP280;68489;50.286;9.452;2024-03-08T12:45:18;96737.09;;;8.52
79089;BMP280;68489;50.286;9.452;2024-03-08T12:47:43;96720.47;;;8.52
79089;BMP280;68489;50.286;9.452;2024-03-08T12:50:10;96720.47;;;8.52
79089;BMP280;68489;50.286;9.452;2024-03-08T12:52:35;96722.50;;;8.70
79089;BMP280;68489;50.286;9.452;2024-03-08T12:55:01;96727.78;;;8.70
79089;BMP280;68489;50.286;9.452;2024-03-08T12:57:33;96722.84;;;8.81
79089;BMP280;68489;50.286;9.452;2024-03-08T12:59:59;96712.22;;;8.81
79089;BMP280;68489;50.286;9.452;2024-03-08T13:02:24;96701.09;;;8.86
79089;BMP280;68489;50.286;9.452;2024-03-08T13:04:51;96713.72;;;8.91
79089;BMP280;68489;50.286;9.452;2024-03-08T13:07:25;96715.63;;;8.90
79089;BMP280;68489;50.286;9.452;2024-03-08T13:09:54;96713.31;;;8.93
79089;BMP280;68489;50.286;9.452;2024-03-08T13:12:20;96699.66;;;9.03
79089;BMP280;68489;50.286;9.452;2024-03-08T13:14:47;96708.66;;;9.06
79089;BMP280;68489;50.286;9.452;2024-03-08T13:17:13;96699.66;;;9.12
79089;BMP280;68489;50.286;9.452;2024-03-08T13:19:39;96694.22;;;9.16
79089;BMP280;68489;50.286;9.452;2024-03-08T13:22:04;96687.78;;;9.17
79089;BMP280;68489;50.286;9.452;2024-03-08T13:24:30;96695.25;;;9.19
79089;BMP280;68489;50.286;9.452;2024-03-08T13:26:56;96684.22;;;9.20
79089;BMP280;68489;50.286;9.452;2024-03-08T13:29:21;96679.22;;;9.22
79089;BMP280;68489;50.286;9.452;2024-03-08T13:31:47;96689.06;;;9.22
79089;BMP280;68489;50.286;9.452;2024-03-08T13:34:17;96682.16;;;9.24
79089;BMP280;68489;50.286;9.452;2024-03-08T13:36:42;96681.00;;;9.34
79089;BMP280;68489;50.286;9.452;2024-03-08T13:39:09;96673.19;;;9.31
79089;BMP280;68489;50.286;9.452;2024-03-08T13:41:43;96657.13;;;9.34
79089;BMP280;68489;50.286;9.452;2024-03-08T13:44:10;96659.63;;;9.29
79089;BMP280;68489;50.286;9.452;2024-03-08T13:46:35;96660.66;;;9.31
79089;BMP280;68489;50.286;9.452;2024-03-08T13:49:05;96656.22;;;9.28
79089;BMP280;68489;50.286;9.452;2024-03-08T13:51:32;96651.22;;;9.30
79089;BMP280;68489;50.286;9.452;2024-03-08T13:53:58;96644.75;;;9.31
79089;BMP280;68489;50.286;9.452;2024-03-08T13:56:26;96642.97;;;9.37
79089;BMP280;68489;50.286;9.452;2024-03-08T13:58:51;96643.13;;;9.43
79089;BMP280;68489;50.286;9.452;2024-03-08T14:01:16;96633.84;;;9.38
79089;BMP280;68489;50.286;9.452;2024-03-08T14:03:42;96634.13;;;9.41
79089;BMP280;68489;50.286;9.452;2024-03-08T14:06:08;96634.16;;;9.50
79089;BMP280;68489;50.286;9.452;2024-03-08T14:08:34;96629.13;;;9.52
79089;BMP280;68489;50.286;9.452;2024-03-08T14:11:03;96632.81;;;9.54
79089;BMP280;68489;50.286;9.452;2024-03-08T14:13:36;96620.88;;;9.59
79089;BMP280;68489;50.286;9.452;2024-03-08T14:16:05;96610.56;;;9.70
79089;BMP280;68489;50.286;9.452;2024-03-08T14:18:31;96618.94;;;9.69
79089;BMP280;68489;50.286;9.452;2024-03-08T14:20:56;96610.09;;;9.62
79089;BMP280;68489;50.286;9.452;2024-03-08T14:23:21;96606.13;;;9.67
79089;BMP280;68489;50.286;9.452;2024-03-08T14:25:49;96598.59;;;9.66